sensor_id;sensor_type;location;lat;lon;timestamp;temperature;humidity
17208;DHT22;8720;48.488;9.202;2022-10-26T00:00:45;14.60;64.80
17208;DHT22;8720;48.488;9.202;2022-10-26T00:03:13;14.60;64.90
17208;DHT22;8720;48.488;9.202;2022-10-26T00:05:43;14.60;65.00
17208;DHT22;8720;48.488;9.202;2022-10-26T00:08:12;14.60;65.10
17208;DHT22;8720;48.488;9.202;2022-10-26T00:10:39;14.60;65.10
17208;DHT22;8720;48.488;9.202;2022-10-26T00:13:10;14.60;65.10
17208;DHT22;8720;48.488;9.202;2022-10-26T00:15:41;14.60;65.20
17208;DHT22;8720;48.488;9.202;2022-10-26T00:18:08;14.70;65.40
17208;DHT22;8720;48.488;9.202;2022-10-26T00:20:36;14.70;65.30
17208;DHT22;8720;48.488;9.202;2022-10-26T00:23:04;14.70;65.40
17208;DHT22;8720;48.488;9.202;2022-10-26T00:25:32;14.70;65.40
17208;DHT22;8720;48.488;9.202;2022-10-26T00:27:59;14.70;65.30
17208;DHT22;8720;48.488;9.202;2022-10-26T00:30:26;14.70;65.40
17208;DHT22;8720;48.488;9.202;2022-10-26T00:32:53;14.70;65.50
17208;DHT22;8720;48.488;9.202;2022-10-26T00:35:23;14.70;65.60
17208;DHT22;8720;48.488;9.202;2022-10-26T00:37:53;14.70;65.60
17208;DHT22;8720;48.488;9.202;2022-10-26T00:40:26;14.70;65.70
17208;DHT22;8720;48.488;9.202;2022-10-26T00:42:54;14.70;65.70
17208;DHT22;8720;48.488;9.202;2022-10-26T00:45:23;14.70;65.80
17208;DHT22;8720;48.488;9.202;2022-10-26T00:47:56;14.70;65.80
17208;DHT22;8720;48.488;9.202;2022-10-26T00:50:28;14.80;65.70
17208;DHT22;8720;48.488;9.202;2022-10-26T00:53:01;14.80;65.70
17208;DHT22;8720;48.488;9.202;2022-10-26T00:55:33;14.80;65.70
17208;DHT22;8720;48.488;9.202;2022-10-26T00:58:06;14.80;65.70
17208;DHT22;8720;48.488;9.202;2022-10-26T01:00:36;14.80;65.80
17208;DHT22;8720;48.488;9.202;2022-10-26T01:03:06;14.80;65.80
17208;DHT22;8720;48.488;9.202;2022-10-26T01:05:39;14.80;65.70
17208;DHT22;8720;48.488;9.202;2022-10-26T01:08:08;14.90;65.70
17208;DHT22;8720;48.488;9.202;2022-10-26T01:10:39;14.90;65.80
17208;DHT22;8720;48.488;9.202;2022-10-26T01:13:09;14.90;65.70
17208;DHT22;8720;48.488;9.202;2022-10-26T01:15:45;14.90;65.70
17208;DHT22;8720;48.488;9.202;2022-10-26T01:18:22;14.90;65.70
17208;DHT22;8720;48.488;9.202;2022-10-26T01:27:26;14.90;65.90
17208;DHT22;8720;48.488;9.202;2022-10-26T01:30:16;14.90;65.90
17208;DHT22;8720;48.488;9.202;2022-10-26T01:33:16;14.80;65.90
17208;DHT22;8720;48.488;9.202;2022-10-26T01:36:00;14.80;66.10
17208;DHT22;8720;48.488;9.202;2022-10-26T01:38:41;14.80;66.40
17208;DHT22;8720;48.488;9.202;2022-10-26T01:41:22;14.80;66.60
17208;DHT22;8720;48.488;9.202;2022-10-26T01:43:58;14.80;66.70
17208;DHT22;8720;48.488;9.202;2022-10-26T01:46:39;14.80;66.90
17208;DHT22;8720;48.488;9.202;2022-10-26T01:49:12;14.80;66.90
17208;DHT22;8720;48.488;9.202;2022-10-26T01:51:44;14.70;66.80
17208;DHT22;8720;48.488;9.202;2022-10-26T01:54:14;14.70;67.10
17208;DHT22;8720;48.488;9.202;2022-10-26T01:56:43;14.70;67.10
17208;DHT22;8720;48.488;9.202;2022-10-26T01:59:35;14.70;67.20
17208;DHT22;8720;48.488;9.202;2022-10-26T02:05:03;14.70;67.20
17208;DHT22;8720;48.488;9.202;2022-10-26T02:07:47;14.70;67.20
17208;DHT22;8720;48.488;9.202;2022-10-26T02:10:30;14.70;67.20
17208;DHT22;8720;48.488;9.202;2022-10-26T02:13:15;14.70;67.40
17208;DHT22;8720;48.488;9.202;2022-10-26T02:15:53;14.70;67.50
17208;DHT22;8720;48.488;9.202;2022-10-26T02:18:30;14.70;67.60
17208;DHT22;8720;48.488;9.202;2022-10-26T02:21:05;14.70;67.70
17208;DHT22;8720;48.488;9.202;2022-10-26T02:23:41;14.70;67.80
17208;DHT22;8720;48.488;9.202;2022-10-26T02:26:14;14.70;68.00
17208;DHT22;8720;48.488;9.202;2022-10-26T02:28:48;14.70;68.00
17208;DHT22;8720;48.488;9.202;2022-10-26T02:31:19;14.70;68.00
17208;DHT22;8720;48.488;9.202;2022-10-26T02:33:48;14.70;68.00
17208;DHT22;8720;48.488;9.202;2022-10-26T02:36:24;14.70;68.10
17208;DHT22;8720;48.488;9.202;2022-10-26T02:38:55;14.70;68.20
17208;DHT22;8720;48.488;9.202;2022-10-26T02:41:27;14.70;68.20
17208;DHT22;8720;48.488;9.202;2022-10-26T02:44:01;14.70;68.40
17208;DHT22;8720;48.488;9.202;2022-10-26T02:46:33;14.70;68.40
17208;DHT22;8720;48.488;9.202;2022-10-26T02:49:01;14.80;68.40
17208;DHT22;8720;48.488;9.202;2022-10-26T02:51:33;14.80;68.40
17208;DHT22;8720;48.488;9.202;2022-10-26T02:54:15;14.80;68.30
17208;DHT22;8720;48.488;9.202;2022-10-26T02:56:51;14.80;68.10
17208;DHT22;8720;48.488;9.202;2022-10-26T02:59:26;14.80;68.00
17208;DHT22;8720;48.488;9.202;2022-10-26T03:01:59;14.80;68.10
17208;DHT22;8720;48.488;9.202;2022-10-26T03:04:28;14.70;68.10
17208;DHT22;8720;48.488;9.202;2022-10-26T03:06:58;14.70;68.10
17208;DHT22;8720;48.488;9.202;2022-10-26T03:09:26;14.70;68.10
17208;DHT22;8720;48.488;9.202;2022-10-26T03:11:54;14.80;68.20
17208;DHT22;8720;48.488;9.202;2022-10-26T03:14:21;14.70;68.10
17208;DHT22;8720;48.488;9.202;2022-10-26T03:16:48;14.70;68.20
17208;DHT22;8720;48.488;9.202;2022-10-26T03:19:15;14.80;68.30
17208;DHT22;8720;48.488;9.202;2022-10-26T03:21:43;14.80;68.20
17208;DHT22;8720;48.488;9.202;2022-10-26T03:24:12;14.80;68.30
17208;DHT22;8720;48.488;9.202;2022-10-26T03:26:39;14.80;68.90
17208;DHT22;8720;48.488;9.202;2022-10-26T03:29:06;14.80;68.30
17208;DHT22;8720;48.488;9.202;2022-10-26T03:31:33;14.80;68.30
17208;DHT22;8720;48.488;9.202;2022-10-26T03:34:01;14.80;68.20
17208;DHT22;8720;48.488;9.202;2022-10-26T03:36:28;14.80;68.10
17208;DHT22;8720;48.488;9.202;2022-10-26T03:38:55;14.80;68.10
17208;DHT22;8720;48.488;9.202;2022-10-26T03:41:24;14.90;68.20
17208;DHT22;8720;48.488;9.202;2022-10-26T03:43:51;14.90;68.10
17208;DHT22;8720;48.488;9.202;2022-10-26T03:46:19;14.80;68.10
17208;DHT22;8720;48.488;9.202;2022-10-26T03:48:46;14.80;68.10
17208;DHT22;8720;48.488;9.202;2022-10-26T03:51:13;14.80;68.20
17208;DHT22;8720;48.488;9.202;2022-10-26T03:53:43;14.80;68.40
17208;DHT22;8720;48.488;9.202;2022-10-26T03:56:11;14.80;68.60
17208;DHT22;8720;48.488;9.202;2022-10-26T03:58:39;14.90;68.70
17208;DHT22;8720;48.488;9.202;2022-10-26T04:01:07;14.90;68.80
17208;DHT22;8720;48.488;9.202;2022-10-26T04:03:34;14.90;68.80
17208;DHT22;8720;48.488;9.202;2022-10-26T04:06:02;14.90;68.80
17208;DHT22;8720;48.488;9.202;2022-10-26T04:08:30;14.90;68.80
17208;DHT22;8720;48.488;9.202;2022-10-26T04:10:58;14.90;68.90
17208;DHT22;8720;48.488;9.202;2022-10-26T04:13:25;14.90;69.00
17208;DHT22;8720;48.488;9.202;2022-10-26T04:15:53;14.90;69.20
17208;DHT22;8720;48.488;9.202;2022-10-26T04:18:21;14.90;70.00
17208;DHT22;8720;48.488;9.202;2022-10-26T04:20:48;14.90;69.40
17208;DHT22;8720;48.488;9.202;2022-10-26T04:23:17;14.90;69.50
17208;DHT22;8720;48.488;9.202;2022-10-26T04:25:45;14.90;69.60
17208;DHT22;8720;48.488;9.202;2022-10-26T04:28:13;14.90;69.60
17208;DHT22;8720;48.488;9.202;2022-10-26T04:30:40;15.00;69.70
17208;DHT22;8720;48.488;9.202;2022-10-26T04:33:12;14.90;69.60
17208;DHT22;8720;48.488;9.202;2022-10-26T04:35:39;14.90;69.70
17208;DHT22;8720;48.488;9.202;2022-10-26T04:38:09;14.90;69.70
17208;DHT22;8720;48.488;9.202;2022-10-26T04:40:36;14.90;69.80
17208;DHT22;8720;48.488;9.202;2022-10-26T04:43:03;14.90;69.90
17208;DHT22;8720;48.488;9.202;2022-10-26T04:45:31;14.90;69.80
17208;DHT22;8720;48.488;9.202;2022-10-26T04:48:00;14.90;69.80
17208;DHT22;8720;48.488;9.202;2022-10-26T04:50:30;14.90;69.80
17208;DHT22;8720;48.488;9.202;2022-10-26T04:52:58;14.90;69.80
17208;DHT22;8720;48.488;9.202;2022-10-26T04:55:25;14.90;69.70
17208;DHT22;8720;48.488;9.202;2022-10-26T04:57:53;14.90;69.80
17208;DHT22;8720;48.488;9.202;2022-10-26T05:00:20;14.80;69.80
17208;DHT22;8720;48.488;9.202;2022-10-26T05:02:47;14.80;69.80
17208;DHT22;8720;48.488;9.202;2022-10-26T05:05:18;14.80;69.80
17208;DHT22;8720;48.488;9.202;2022-10-26T05:07:54;14.80;69.80
17208;DHT22;8720;48.488;9.202;2022-10-26T05:10:24;14.80;70.00
17208;DHT22;8720;48.488;9.202;2022-10-26T05:12:52;14.80;70.00
17208;DHT22;8720;48.488;9.202;2022-10-26T05:15:21;14.80;70.00
17208;DHT22;8720;48.488;9.202;2022-10-26T05:17:54;14.80;70.20
17208;DHT22;8720;48.488;9.202;2022-10-26T05:20:22;14.80;70.50
17208;DHT22;8720;48.488;9.202;2022-10-26T05:22:55;14.80;70.60
17208;DHT22;8720;48.488;9.202;2022-10-26T05:25:23;14.80;70.70
17208;DHT22;8720;48.488;9.202;2022-10-26T05:27:56;14.80;70.80
17208;DHT22;8720;48.488;9.202;2022-10-26T05:30:23;14.90;71.00
17208;DHT22;8720;48.488;9.202;2022-10-26T05:32:53;15.00;71.10
17208;DHT22;8720;48.488;9.202;2022-10-26T05:35:20;15.10;71.00
17208;DHT22;8720;48.488;9.202;2022-10-26T05:37:48;15.10;70.90
17208;DHT22;8720;48.488;9.202;2022-10-26T05:40:17;15.20;70.90
17208;DHT22;8720;48.488;9.202;2022-10-26T05:42:45;15.30;70.90
17208;DHT22;8720;48.488;9.202;2022-10-26T05:45:12;15.40;71.00
17208;DHT22;8720;48.488;9.202;2022-10-26T05:47:40;15.40;70.60
17208;DHT22;8720;48.488;9.202;2022-10-26T05:50:10;15.40;70.20
17208;DHT22;8720;48.488;9.202;2022-10-26T05:52:38;15.50;70.00
17208;DHT22;8720;48.488;9.202;2022-10-26T05:55:07;15.50;70.00
17208;DHT22;8720;48.488;9.202;2022-10-26T05:57:37;15.40;70.00
17208;DHT22;8720;48.488;9.202;2022-10-26T06:00:08;15.50;70.00
17208;DHT22;8720;48.488;9.202;2022-10-26T06:02:50;15.50;70.20
17208;DHT22;8720;48.488;9.202;2022-10-26T06:05:31;15.50;70.10
17208;DHT22;8720;48.488;9.202;2022-10-26T06:08:02;15.60;70.40
17208;DHT22;8720;48.488;9.202;2022-10-26T06:10:34;15.60;70.40
17208;DHT22;8720;48.488;9.202;2022-10-26T06:13:04;15.60;70.20
17208;DHT22;8720;48.488;9.202;2022-10-26T06:15:36;15.60;70.10
17208;DHT22;8720;48.488;9.202;2022-10-26T06:18:20;15.60;69.90
17208;DHT22;8720;48.488;9.202;2022-10-26T06:21:09;15.60;69.40
17208;DHT22;8720;48.488;9.202;2022-10-26T06:23:54;15.60;69.10
17208;DHT22;8720;48.488;9.202;2022-10-26T06:26:36;15.60;69.20
17208;DHT22;8720;48.488;9.202;2022-10-26T06:29:23;15.60;69.20
17208;DHT22;8720;48.488;9.202;2022-10-26T06:32:03;15.60;69.20
17208;DHT22;8720;48.488;9.202;2022-10-26T06:34:33;15.50;69.20
17208;DHT22;8720;48.488;9.202;2022-10-26T06:37:04;15.60;69.30
17208;DHT22;8720;48.488;9.202;2022-10-26T06:39:35;15.50;69.30
17208;DHT22;8720;48.488;9.202;2022-10-26T06:42:08;15.50;69.40
17208;DHT22;8720;48.488;9.202;2022-10-26T06:44:40;15.50;69.50
17208;DHT22;8720;48.488;9.202;2022-10-26T06:47:13;15.50;69.60
17208;DHT22;8720;48.488;9.202;2022-10-26T06:49:57;15.60;69.70
17208;DHT22;8720;48.488;9.202;2022-10-26T06:52:34;15.60;69.70
17208;DHT22;8720;48.488;9.202;2022-10-26T06:55:13;15.60;69.90
17208;DHT22;8720;48.488;9.202;2022-10-26T06:57:42;15.60;70.00
17208;DHT22;8720;48.488;9.202;2022-10-26T07:00:18;15.60;70.10
17208;DHT22;8720;48.488;9.202;2022-10-26T07:02:48;15.60;70.10
17208;DHT22;8720;48.488;9.202;2022-10-26T07:05:16;15.70;70.70
17208;DHT22;8720;48.488;9.202;2022-10-26T07:07:44;15.70;70.90
17208;DHT22;8720;48.488;9.202;2022-10-26T07:10:14;15.80;71.10
17208;DHT22;8720;48.488;9.202;2022-10-26T07:12:42;15.90;70.90
17208;DHT22;8720;48.488;9.202;2022-10-26T07:15:09;15.90;70.80
17208;DHT22;8720;48.488;9.202;2022-10-26T07:17:45;16.00;70.90
17208;DHT22;8720;48.488;9.202;2022-10-26T07:20:14;16.10;70.40
17208;DHT22;8720;48.488;9.202;2022-10-26T07:22:42;16.10;70.70
17208;DHT22;8720;48.488;9.202;2022-10-26T07:25:10;16.20;70.80
17208;DHT22;8720;48.488;9.202;2022-10-26T07:27:37;16.30;70.90
17208;DHT22;8720;48.488;9.202;2022-10-26T07:30:06;16.40;70.80
17208;DHT22;8720;48.488;9.202;2022-10-26T07:32:34;16.40;70.50
17208;DHT22;8720;48.488;9.202;2022-10-26T07:35:03;16.50;70.10
17208;DHT22;8720;48.488;9.202;2022-10-26T07:37:31;16.50;69.70
17208;DHT22;8720;48.488;9.202;2022-10-26T07:39:58;16.60;69.60
17208;DHT22;8720;48.488;9.202;2022-10-26T07:42:26;16.60;69.40
17208;DHT22;8720;48.488;9.202;2022-10-26T07:44:54;16.70;69.30
17208;DHT22;8720;48.488;9.202;2022-10-26T07:47:21;16.70;69.30
17208;DHT22;8720;48.488;9.202;2022-10-26T07:49:48;16.80;69.40
17208;DHT22;8720;48.488;9.202;2022-10-26T07:52:17;16.80;69.40
17208;DHT22;8720;48.488;9.202;2022-10-26T07:54:44;16.90;69.00
17208;DHT22;8720;48.488;9.202;2022-10-26T07:57:11;17.00;69.20
17208;DHT22;8720;48.488;9.202;2022-10-26T07:59:39;17.00;69.10
17208;DHT22;8720;48.488;9.202;2022-10-26T08:02:08;17.10;69.20
17208;DHT22;8720;48.488;9.202;2022-10-26T08:04:35;17.20;68.90
17208;DHT22;8720;48.488;9.202;2022-10-26T08:07:03;17.20;69.20
17208;DHT22;8720;48.488;9.202;2022-10-26T08:09:31;17.30;69.10
17208;DHT22;8720;48.488;9.202;2022-10-26T08:11:59;17.40;68.80
17208;DHT22;8720;48.488;9.202;2022-10-26T08:14:27;17.40;68.70
17208;DHT22;8720;48.488;9.202;2022-10-26T08:16:55;17.50;68.60
17208;DHT22;8720;48.488;9.202;2022-10-26T08:19:22;17.50;68.40
17208;DHT22;8720;48.488;9.202;2022-10-26T08:21:49;17.60;68.30
17208;DHT22;8720;48.488;9.202;2022-10-26T08:24:17;17.60;68.10
17208;DHT22;8720;48.488;9.202;2022-10-26T08:26:45;17.70;68.00
17208;DHT22;8720;48.488;9.202;2022-10-26T08:29:12;17.80;68.00
17208;DHT22;8720;48.488;9.202;2022-10-26T08:31:40;17.80;68.00
17208;DHT22;8720;48.488;9.202;2022-10-26T08:34:07;17.90;67.60
17208;DHT22;8720;48.488;9.202;2022-10-26T08:36:35;18.00;67.60
17208;DHT22;8720;48.488;9.202;2022-10-26T08:39:02;18.00;67.10
17208;DHT22;8720;48.488;9.202;2022-10-26T08:41:37;18.10;67.10
17208;DHT22;8720;48.488;9.202;2022-10-26T08:44:22;18.10;66.60
17208;DHT22;8720;48.488;9.202;2022-10-26T08:46:56;18.20;66.00
17208;DHT22;8720;48.488;9.202;2022-10-26T08:49:38;18.30;66.20
17208;DHT22;8720;48.488;9.202;2022-10-26T08:52:13;18.40;66.40
17208;DHT22;8720;48.488;9.202;2022-10-26T08:54:49;18.40;66.90
17208;DHT22;8720;48.488;9.202;2022-10-26T08:57:23;18.50;65.90
17208;DHT22;8720;48.488;9.202;2022-10-26T08:59:58;18.60;66.10
17208;DHT22;8720;48.488;9.202;2022-10-26T09:02:27;18.70;66.00
17208;DHT22;8720;48.488;9.202;2022-10-26T09:04:57;18.80;66.20
17208;DHT22;8720;48.488;9.202;2022-10-26T09:07:36;18.90;65.90
17208;DHT22;8720;48.488;9.202;2022-10-26T09:10:22;19.00;64.80
17208;DHT22;8720;48.488;9.202;2022-10-26T09:13:05;19.10;64.40
17208;DHT22;8720;48.488;9.202;2022-10-26T09:15:53;19.20;64.80
17208;DHT22;8720;48.488;9.202;2022-10-26T09:18:36;19.30;64.20
17208;DHT22;8720;48.488;9.202;2022-10-26T09:21:21;19.40;64.20
17208;DHT22;8720;48.488;9.202;2022-10-26T09:24:04;19.40;64.30
17208;DHT22;8720;48.488;9.202;2022-10-26T09:26:37;19.50;64.20
17208;DHT22;8720;48.488;9.202;2022-10-26T09:29:18;19.60;64.20
17208;DHT22;8720;48.488;9.202;2022-10-26T09:31:50;19.60;64.40
17208;DHT22;8720;48.488;9.202;2022-10-26T09:34:26;19.70;64.10
17208;DHT22;8720;48.488;9.202;2022-10-26T09:36:57;19.70;63.50
17208;DHT22;8720;48.488;9.202;2022-10-26T09:39:35;19.80;64.00
17208;DHT22;8720;48.488;9.202;2022-10-26T09:42:15;19.80;63.10
17208;DHT22;8720;48.488;9.202;2022-10-26T09:44:50;19.90;62.70
17208;DHT22;8720;48.488;9.202;2022-10-26T09:47:30;19.90;63.30
17208;DHT22;8720;48.488;9.202;2022-10-26T09:50:06;19.90;63.20
17208;DHT22;8720;48.488;9.202;2022-10-26T09:52:45;20.00;63.20
17208;DHT22;8720;48.488;9.202;2022-10-26T09:55:13;20.00;63.70
17208;DHT22;8720;48.488;9.202;2022-10-26T09:57:42;20.00;63.60
17208;DHT22;8720;48.488;9.202;2022-10-26T10:00:13;20.10;63.60
17208;DHT22;8720;48.488;9.202;2022-10-26T10:02:44;20.20;63.60
17208;DHT22;8720;48.488;9.202;2022-10-26T10:05:22;20.30;63.30
17208;DHT22;8720;48.488;9.202;2022-10-26T10:07:51;20.30;62.90
17208;DHT22;8720;48.488;9.202;2022-10-26T10:10:19;20.40;63.50
17208;DHT22;8720;48.488;9.202;2022-10-26T10:12:49;20.50;63.20
17208;DHT22;8720;48.488;9.202;2022-10-26T10:15:19;20.50;63.80
17208;DHT22;8720;48.488;9.202;2022-10-26T10:17:50;20.50;62.80
17208;DHT22;8720;48.488;9.202;2022-10-26T10:20:22;20.60;62.10
17208;DHT22;8720;48.488;9.202;2022-10-26T10:22:54;20.60;62.10
17208;DHT22;8720;48.488;9.202;2022-10-26T10:25:33;20.70;61.90
17208;DHT22;8720;48.488;9.202;2022-10-26T10:28:07;20.80;60.80
17208;DHT22;8720;48.488;9.202;2022-10-26T10:30:51;20.80;61.60
17208;DHT22;8720;48.488;9.202;2022-10-26T10:33:22;20.90;60.60
17208;DHT22;8720;48.488;9.202;2022-10-26T10:35:57;20.90;60.70
17208;DHT22;8720;48.488;9.202;2022-10-26T10:38:28;21.00;60.60
17208;DHT22;8720;48.488;9.202;2022-10-26T10:40:57;21.00;60.10
17208;DHT22;8720;48.488;9.202;2022-10-26T10:43:28;21.10;59.80
17208;DHT22;8720;48.488;9.202;2022-10-26T10:45:57;21.20;60.00
17208;DHT22;8720;48.488;9.202;2022-10-26T10:48:27;21.20;59.40
17208;DHT22;8720;48.488;9.202;2022-10-26T10:50:56;21.30;59.10
17208;DHT22;8720;48.488;9.202;2022-10-26T10:53:30;21.40;59.00
17208;DHT22;8720;48.488;9.202;2022-10-26T10:56:22;21.50;58.80
17208;DHT22;8720;48.488;9.202;2022-10-26T10:59:11;21.60;58.20
17208;DHT22;8720;48.488;9.202;2022-10-26T11:01:54;21.70;58.90
17208;DHT22;8720;48.488;9.202;2022-10-26T11:04:50;21.80;58.60
17208;DHT22;8720;48.488;9.202;2022-10-26T11:07:32;22.00;57.60
17208;DHT22;8720;48.488;9.202;2022-10-26T11:10:13;22.10;58.10
17208;DHT22;8720;48.488;9.202;2022-10-26T11:12:48;22.30;57.80
17208;DHT22;8720;48.488;9.202;2022-10-26T11:15:23;22.40;57.90
17208;DHT22;8720;48.488;9.202;2022-10-26T11:17:59;22.60;57.30
17208;DHT22;8720;48.488;9.202;2022-10-26T11:20:37;22.80;56.70
17208;DHT22;8720;48.488;9.202;2022-10-26T11:23:12;22.90;56.90
17208;DHT22;8720;48.488;9.202;2022-10-26T11:25:49;23.00;55.90
17208;DHT22;8720;48.488;9.202;2022-10-26T11:28:36;23.10;55.80
17208;DHT22;8720;48.488;9.202;2022-10-26T11:31:13;23.20;55.60
17208;DHT22;8720;48.488;9.202;2022-10-26T11:33:46;23.20;55.70
17208;DHT22;8720;48.488;9.202;2022-10-26T11:36:32;23.30;56.00
17208;DHT22;8720;48.488;9.202;2022-10-26T11:39:12;23.40;54.90
17208;DHT22;8720;48.488;9.202;2022-10-26T11:41:48;23.50;54.60
17208;DHT22;8720;48.488;9.202;2022-10-26T11:44:26;23.50;55.00
17208;DHT22;8720;48.488;9.202;2022-10-26T11:47:00;23.60;54.30
17208;DHT22;8720;48.488;9.202;2022-10-26T11:49:37;23.70;54.10
17208;DHT22;8720;48.488;9.202;2022-10-26T11:52:13;23.80;53.80
17208;DHT22;8720;48.488;9.202;2022-10-26T11:54:50;23.90;53.50
17208;DHT22;8720;48.488;9.202;2022-10-26T11:57:21;24.00;53.90
17208;DHT22;8720;48.488;9.202;2022-10-26T11:59:52;24.10;53.90
17208;DHT22;8720;48.488;9.202;2022-10-26T12:02:23;24.10;53.20
17208;DHT22;8720;48.488;9.202;2022-10-26T12:04:56;24.20;53.30
17208;DHT22;8720;48.488;9.202;2022-10-26T12:07:32;24.30;52.90
17208;DHT22;8720;48.488;9.202;2022-10-26T12:10:02;24.30;52.30
17208;DHT22;8720;48.488;9.202;2022-10-26T12:12:37;24.30;52.70
17208;DHT22;8720;48.488;9.202;2022-10-26T12:15:17;24.30;52.40
17208;DHT22;8720;48.488;9.202;2022-10-26T12:17:51;24.40;51.90
17208;DHT22;8720;48.488;9.202;2022-10-26T12:20:52;24.40;53.10
17208;DHT22;8720;48.488;9.202;2022-10-26T12:23:29;24.50;51.30
17208;DHT22;8720;48.488;9.202;2022-10-26T12:26:36;24.50;51.90
17208;DHT22;8720;48.488;9.202;2022-10-26T12:29:26;24.50;50.80
17208;DHT22;8720;48.488;9.202;2022-10-26T12:35:30;24.60;50.30
17208;DHT22;8720;48.488;9.202;2022-10-26T12:38:00;24.60;50.20
17208;DHT22;8720;48.488;9.202;2022-10-26T12:40:48;24.60;51.40
17208;DHT22;8720;48.488;9.202;2022-10-26T12:43:39;24.70;51.20
17208;DHT22;8720;48.488;9.202;2022-10-26T12:46:40;24.80;51.00
17208;DHT22;8720;48.488;9.202;2022-10-26T12:52:32;24.90;49.40
17208;DHT22;8720;48.488;9.202;2022-10-26T12:55:48;25.00;50.00
17208;DHT22;8720;48.488;9.202;2022-10-26T12:59:02;25.00;49.30
17208;DHT22;8720;48.488;9.202;2022-10-26T13:02:11;25.10;49.30
17208;DHT22;8720;48.488;9.202;2022-10-26T13:05:27;25.10;48.90
17208;DHT22;8720;48.488;9.202;2022-10-26T13:08:06;25.10;48.60
17208;DHT22;8720;48.488;9.202;2022-10-26T13:10:37;25.00;49.10
17208;DHT22;8720;48.488;9.202;2022-10-26T13:13:21;25.00;49.00
17208;DHT22;8720;48.488;9.202;2022-10-26T13:15:54;24.90;48.00
17208;DHT22;8720;48.488;9.202;2022-10-26T13:18:23;24.80;48.40
17208;DHT22;8720;48.488;9.202;2022-10-26T13:20:59;24.80;48.90
17208;DHT22;8720;48.488;9.202;2022-10-26T13:23:35;24.70;48.00
17208;DHT22;8720;48.488;9.202;2022-10-26T13:26:07;24.70;48.30
17208;DHT22;8720;48.488;9.202;2022-10-26T13:28:48;24.60;48.20
17208;DHT22;8720;48.488;9.202;2022-10-26T13:31:52;24.50;47.60
17208;DHT22;8720;48.488;9.202;2022-10-26T13:34:23;24.50;47.60
17208;DHT22;8720;48.488;9.202;2022-10-26T13:37:04;24.40;48.60
17208;DHT22;8720;48.488;9.202;2022-10-26T13:39:41;24.40;48.20
17208;DHT22;8720;48.488;9.202;2022-10-26T13:42:14;24.30;48.60
17208;DHT22;8720;48.488;9.202;2022-10-26T13:44:49;24.30;48.60
17208;DHT22;8720;48.488;9.202;2022-10-26T13:47:24;24.30;48.60
17208;DHT22;8720;48.488;9.202;2022-10-26T13:49:58;24.30;48.50
17208;DHT22;8720;48.488;9.202;2022-10-26T13:52:35;24.20;48.50
17208;DHT22;8720;48.488;9.202;2022-10-26T13:55:09;24.20;48.40
17208;DHT22;8720;48.488;9.202;2022-10-26T13:57:47;24.10;48.10
17208;DHT22;8720;48.488;9.202;2022-10-26T14:00:28;24.10;48.10
17208;DHT22;8720;48.488;9.202;2022-10-26T14:02:55;24.10;48.50
17208;DHT22;8720;48.488;9.202;2022-10-26T14:05:23;24.00;48.50
17208;DHT22;8720;48.488;9.202;2022-10-26T14:07:54;24.00;48.60
17208;DHT22;8720;48.488;9.202;2022-10-26T14:10:26;23.90;48.10
17208;DHT22;8720;48.488;9.202;2022-10-26T14:12:55;23.90;48.40
17208;DHT22;8720;48.488;9.202;2022-10-26T14:15:26;23.80;48.60
17208;DHT22;8720;48.488;9.202;2022-10-26T14:17:57;23.80;48.70
17208;DHT22;8720;48.488;9.202;2022-10-26T14:20:28;23.80;48.80
17208;DHT22;8720;48.488;9.202;2022-10-26T14:22:58;23.80;48.60
17208;DHT22;8720;48.488;9.202;2022-10-26T14:25:26;23.70;48.30
17208;DHT22;8720;48.488;9.202;2022-10-26T14:27:56;23.70;48.60
17208;DHT22;8720;48.488;9.202;2022-10-26T14:30:26;23.70;48.60
17208;DHT22;8720;48.488;9.202;2022-10-26T14:32:55;23.70;48.50
17208;DHT22;8720;48.488;9.202;2022-10-26T14:35:24;23.60;48.70
17208;DHT22;8720;48.488;9.202;2022-10-26T14:37:58;23.60;48.60
17208;DHT22;8720;48.488;9.202;2022-10-26T14:40:33;23.60;49.30
17208;DHT22;8720;48.488;9.202;2022-10-26T14:43:03;23.50;48.50
17208;DHT22;8720;48.488;9.202;2022-10-26T14:45:33;23.50;48.60
17208;DHT22;8720;48.488;9.202;2022-10-26T14:48:03;23.50;48.80
17208;DHT22;8720;48.488;9.202;2022-10-26T14:50:32;23.50;48.90
17208;DHT22;8720;48.488;9.202;2022-10-26T14:53:04;23.50;49.00
17208;DHT22;8720;48.488;9.202;2022-10-26T14:55:44;23.50;48.80
17208;DHT22;8720;48.488;9.202;2022-10-26T14:58:17;23.40;48.50
17208;DHT22;8720;48.488;9.202;2022-10-26T15:01:16;23.50;48.90
17208;DHT22;8720;48.488;9.202;2022-10-26T15:03:53;23.50;48.40
17208;DHT22;8720;48.488;9.202;2022-10-26T15:06:42;23.40;48.80
17208;DHT22;8720;48.488;9.202;2022-10-26T15:09:30;23.40;48.40
17208;DHT22;8720;48.488;9.202;2022-10-26T15:12:04;23.40;48.40
17208;DHT22;8720;48.488;9.202;2022-10-26T15:14:34;23.40;48.90
17208;DHT22;8720;48.488;9.202;2022-10-26T15:17:02;23.30;48.90
17208;DHT22;8720;48.488;9.202;2022-10-26T15:19:30;23.30;48.80
17208;DHT22;8720;48.488;9.202;2022-10-26T15:21:58;23.30;49.50
17208;DHT22;8720;48.488;9.202;2022-10-26T15:24:35;23.30;48.90
17208;DHT22;8720;48.488;9.202;2022-10-26T15:27:11;23.30;48.90
17208;DHT22;8720;48.488;9.202;2022-10-26T15:29:44;23.20;48.80
17208;DHT22;8720;48.488;9.202;2022-10-26T15:32:26;23.20;49.00
17208;DHT22;8720;48.488;9.202;2022-10-26T15:35:12;23.10;48.60
17208;DHT22;8720;48.488;9.202;2022-10-26T15:37:51;23.10;48.60
17208;DHT22;8720;48.488;9.202;2022-10-26T15:40:21;23.00;49.10
17208;DHT22;8720;48.488;9.202;2022-10-26T15:42:51;22.90;48.90
17208;DHT22;8720;48.488;9.202;2022-10-26T15:45:21;22.90;48.90
17208;DHT22;8720;48.488;9.202;2022-10-26T15:47:51;22.80;48.90
17208;DHT22;8720;48.488;9.202;2022-10-26T15:50:21;22.80;49.40
17208;DHT22;8720;48.488;9.202;2022-10-26T15:52:55;22.70;49.20
17208;DHT22;8720;48.488;9.202;2022-10-26T15:55:29;22.60;49.00
17208;DHT22;8720;48.488;9.202;2022-10-26T15:57:56;22.50;49.00
17208;DHT22;8720;48.488;9.202;2022-10-26T16:00:24;22.50;49.20
17208;DHT22;8720;48.488;9.202;2022-10-26T16:02:54;22.40;49.20
17208;DHT22;8720;48.488;9.202;2022-10-26T16:05:22;22.30;49.20
17208;DHT22;8720;48.488;9.202;2022-10-26T16:07:49;22.20;49.20
17208;DHT22;8720;48.488;9.202;2022-10-26T16:10:20;22.20;49.40
17208;DHT22;8720;48.488;9.202;2022-10-26T16:12:50;22.10;49.40
17208;DHT22;8720;48.488;9.202;2022-10-26T16:15:20;22.00;49.60
17208;DHT22;8720;48.488;9.202;2022-10-26T16:17:50;21.90;49.90
17208;DHT22;8720;48.488;9.202;2022-10-26T16:20:20;21.80;50.00
17208;DHT22;8720;48.488;9.202;2022-10-26T16:22:49;21.70;50.10
17208;DHT22;8720;48.488;9.202;2022-10-26T16:25:20;21.60;50.30
17208;DHT22;8720;48.488;9.202;2022-10-26T16:27:51;21.50;50.50
17208;DHT22;8720;48.488;9.202;2022-10-26T16:30:20;21.40;50.60
17208;DHT22;8720;48.488;9.202;2022-10-26T16:32:48;21.30;50.70
17208;DHT22;8720;48.488;9.202;2022-10-26T16:35:15;21.20;50.90
17208;DHT22;8720;48.488;9.202;2022-10-26T16:37:44;21.00;50.90
17208;DHT22;8720;48.488;9.202;2022-10-26T16:40:11;20.90;51.10